Time;durP1;ratioP1;P1;durP2;ratioP2;P2;SDS_P1;SDS_P2;PMS_P1;PMS_P2;Temp;Humidity;BMP_temperature;BMP_pressure;BME280_temperature;BME280_humidity;BME280_pressure;Samples;Min_cycle;Max_cycle;Signal;HPM_P1;HPM_P2
2021/11/26 00:00:14;;;;;;;14.10;13.60;;;20.90;62.30;;;;;;5013636;28;20503;-50
2021/11/26 00:02:41;;;;;;;14.60;14.00;;;21.20;62.80;;;;;;5013490;28;20460;-46
2021/11/26 00:05:09;;;;;;;14.73;14.13;;;21.80;60.70;;;;;;5014795;28;20919;-50
2021/11/26 00:07:36;;;;;;;14.50;13.90;;;22.10;59.00;;;;;;5013560;28;20453;-46
2021/11/26 00:10:05;;;;;;;15.40;14.80;;;22.10;57.80;;;;;;5013407;28;21070;-48
2021/11/26 00:12:32;;;;;;;15.47;14.87;;;22.00;57.50;;;;;;5013369;28;20501;-46
2021/11/26 00:15:12;;;;;;;15.60;15.00;;;21.90;57.30;;;;;;5022309;28;20782;-50
2021/11/26 00:17:45;;;;;;;15.30;14.60;;;21.80;57.20;;;;;;5033258;28;20503;-46
2021/11/26 00:20:12;;;;;;;14.90;14.20;;;21.70;57.30;;;;;;5032977;28;21077;-48
2021/11/26 00:22:40;;;;;;;13.73;13.23;;;21.70;57.40;;;;;;5032071;28;20448;-46
2021/11/26 00:25:09;;;;;;;15.20;14.50;;;21.60;57.40;;;;;;5022866;28;20453;-52
2021/11/26 00:27:36;;;;;;;14.93;14.33;;;21.50;57.40;;;;;;5013312;28;20943;-46
2021/11/26 00:30:03;;;;;;;15.47;14.83;;;21.50;57.60;;;;;;5013110;28;20464;-51
2021/11/26 00:32:31;;;;;;;14.57;13.97;;;21.60;57.80;;;;;;5013056;28;20448;-48
2021/11/26 00:34:57;;;;;;;15.73;15.13;;;22.00;57.10;;;;;;5021125;28;20448;-47
2021/11/26 00:37:24;;;;;;;16.20;15.50;;;22.10;56.40;;;;;;5032871;28;20445;-48
2021/11/26 00:39:52;;;;;;;14.70;14.10;;;22.10;56.10;;;;;;5032595;28;20495;-49
2021/11/26 00:42:20;;;;;;;15.53;14.73;;;22.10;55.90;;;;;;5032520;28;20449;-49
2021/11/26 00:44:47;;;;;;;13.77;13.27;;;22.10;55.90;;;;;;5025860;28;20446;-49
2021/11/26 00:47:14;;;;;;;15.80;14.97;;;22.00;55.90;;;;;;5012840;28;20460;-49
2021/11/26 00:49:40;;;;;;;15.47;14.77;;;21.90;55.90;;;;;;5013260;28;20997;-53
2021/11/26 00:52:07;;;;;;;15.80;15.20;;;21.90;56.10;;;;;;5012927;28;20452;-55
2021/11/26 00:54:34;;;;;;;15.10;14.40;;;21.80;56.10;;;;;;5016391;28;20818;-58
2021/11/26 00:57:06;;;;;;;15.33;14.63;;;21.70;56.20;;;;;;5033091;28;20444;-56
2021/11/26 00:59:35;;;;;;;14.80;14.20;;;21.60;56.40;;;;;;5032740;28;20796;-55
2021/11/26 01:02:02;;;;;;;14.33;13.83;;;21.80;56.60;;;;;;5032596;28;20992;-57
2021/11/26 01:04:29;;;;;;;14.90;14.30;;;22.10;56.00;;;;;;5029976;28;20818;-56
2021/11/26 01:06:55;;;;;;;14.60;13.90;;;22.30;55.20;;;;;;5013039;28;20827;-57
2021/11/26 01:09:22;;;;;;;15.00;14.30;;;22.30;54.90;;;;;;5013092;28;20532;-56
2021/11/26 01:11:49;;;;;;;14.30;13.77;;;22.30;54.80;;;;;;5012875;28;20438;-56
2021/11/26 01:14:16;;;;;;;15.07;14.47;;;22.20;54.80;;;;;;5013175;28;20450;-56
2021/11/26 01:16:45;;;;;;;16.23;15.43;;;22.10;54.80;;;;;;5032391;28;20455;-59
2021/11/26 01:19:12;;;;;;;14.40;13.90;;;22.10;54.90;;;;;;5032370;28;20456;-59
2021/11/26 01:21:39;;;;;;;14.60;14.10;;;22.00;55.00;;;;;;5031901;28;21017;-57
2021/11/26 01:24:06;;;;;;;15.60;15.00;;;21.90;55.00;;;;;;5032251;28;20532;-58
2021/11/26 01:26:33;;;;;;;15.73;15.07;;;21.80;55.20;;;;;;5012955;28;20478;-54
2021/11/26 01:28:59;;;;;;;14.93;14.20;;;21.90;55.40;;;;;;5012834;28;20867;-55
2021/11/26 01:31:26;;;;;;;15.90;15.20;;;22.30;55.10;;;;;;5012739;28;20470;-51
2021/11/26 01:33:55;;;;;;;14.17;13.47;;;22.40;54.40;;;;;;5012660;28;20454;-55
2021/11/26 01:36:22;;;;;;;15.10;14.50;;;22.50;54.60;;;;;;5029571;28;20451;-57
2021/11/26 01:38:49;;;;;;;15.00;14.43;;;22.40;54.00;;;;;;5032430;28;20449;-55
2021/11/26 01:41:16;;;;;;;15.97;15.27;;;22.40;54.00;;;;;;5032156;28;20484;-55
2021/11/26 01:43:43;;;;;;;15.67;15.00;;;22.30;54.10;;;;;;5031921;28;20445;-53
2021/11/26 01:46:11;;;;;;;15.17;14.50;;;22.20;54.10;;;;;;5016404;28;20453;-57
2021/11/26 01:48:39;;;;;;;15.07;14.47;;;22.10;54.20;;;;;;5012304;28;20478;-55
2021/11/26 01:51:10;;;;;;;15.83;15.13;;;22.00;54.30;;;;;;5011953;28;20470;-57
2021/11/26 01:53:38;;;;;;;15.40;14.80;;;22.00;54.50;;;;;;5011886;28;20456;-54
2021/11/26 01:56:06;;;;;;;16.20;15.27;;;21.90;54.70;;;;;;5026244;28;20451;-56
2021/11/26 01:58:34;;;;;;;16.00;15.40;;;22.10;54.90;;;;;;5031959;28;20957;-58
2021/11/26 02:01:03;;;;;;;15.87;15.20;;;22.40;54.30;;;;;;5031812;28;20484;-55
2021/11/26 02:03:30;;;;;;;15.53;14.93;;;22.60;53.70;;;;;;5032300;28;21028;-56
2021/11/26 02:05:57;;;;;;;15.27;14.57;;;22.60;53.40;;;;;;5018920;28;20450;-55
2021/11/26 02:08:25;;;;;;;14.70;14.10;;;22.60;53.40;;;;;;5012482;28;20970;-57
2021/11/26 02:10:52;;;;;;;15.30;14.50;;;22.50;53.30;;;;;;5012333;28;20465;-54
2021/11/26 02:13:20;;;;;;;16.40;15.50;;;22.40;53.50;;;;;;5012177;28;20442;-55
2021/11/26 02:15:47;;;;;;;15.07;14.47;;;22.30;53.50;;;;;;5023653;28;20449;-56
2021/11/26 02:18:16;;;;;;;14.23;13.70;;;22.20;53.60;;;;;;5032086;28;20449;-56
2021/11/26 02:20:44;;;;;;;15.30;14.70;;;22.10;53.70;;;;;;5031961;28;20572;-53
2021/11/26 02:23:12;;;;;;;15.10;14.50;;;22.00;53.80;;;;;;5031885;28;20444;-58
2021/11/26 02:25:39;;;;;;;16.13;15.50;;;22.00;54.10;;;;;;5021851;28;20460;-54
2021/11/26 02:28:08;;;;;;;15.00;14.33;;;22.10;54.20;;;;;;5012422;28;20449;-54
2021/11/26 02:30:36;;;;;;;15.63;14.97;;;22.40;53.80;;;;;;5012957;28;20472;-56
2021/11/26 02:33:05;;;;;;;15.67;15.00;;;22.60;53.30;;;;;;5013230;28;20446;-58
2021/11/26 02:35:33;;;;;;;15.37;14.67;;;22.60;53.00;;;;;;5012357;28;20446;-56
2021/11/26 02:38:02;;;;;;;16.30;15.50;;;22.60;52.90;;;;;;5012235;28;20814;-58
2021/11/26 02:40:30;;;;;;;17.20;16.50;;;22.50;53.00;;;;;;5012259;28;20489;-54
2021/11/26 02:42:57;;;;;;;14.97;14.37;;;22.40;53.00;;;;;;5023858;28;20459;-58
2021/11/26 02:45:25;;;;;;;15.83;15.07;;;22.40;53.20;;;;;;5034394;28;20967;-58
2021/11/26 02:47:54;;;;;;;14.90;14.30;;;22.20;53.20;;;;;;5035840;28;20449;-57
2021/11/26 02:50:22;;;;;;;14.73;14.13;;;22.20;53.40;;;;;;5035440;28;20530;-52
2021/11/26 02:52:49;;;;;;;14.67;14.07;;;22.10;53.70;;;;;;5024307;28;20521;-52
2021/11/26 02:55:21;;;;;;;16.60;16.00;;;22.20;54.30;;;;;;5016351;28;20450;-57
2021/11/26 02:57:47;;;;;;;16.07;15.40;;;22.50;53.40;;;;;;5016834;28;20450;-57
2021/11/26 03:00:17;;;;;;;14.57;14.07;;;22.60;52.80;;;;;;5016362;28;20469;-57
2021/11/26 03:02:45;;;;;;;15.10;14.50;;;22.70;52.60;;;;;;5025693;28;20467;-55
2021/11/26 03:05:12;;;;;;;16.17;15.47;;;22.70;52.60;;;;;;5036063;28;20437;-58
2021/11/26 03:07:39;;;;;;;15.30;14.67;;;22.60;52.60;;;;;;5036123;28;20467;-56
2021/11/26 03:10:08;;;;;;;16.07;15.37;;;22.50;52.70;;;;;;5036087;28;20465;-57
2021/11/26 03:12:36;;;;;;;16.37;15.67;;;22.40;52.80;;;;;;5026963;28;20490;-56
2021/11/26 03:15:04;;;;;;;15.27;14.63;;;22.30;52.80;;;;;;5016046;28;20456;-57
2021/11/26 03:17:30;;;;;;;15.80;15.10;;;22.20;53.00;;;;;;5022591;28;20455;-59
2021/11/26 03:19:57;;;;;;;15.47;14.87;;;22.10;53.70;;;;;;5035151;28;20556;-59
2021/11/26 03:22:24;;;;;;;14.90;14.30;;;22.10;53.40;;;;;;5028131;28;20516;-57
2021/11/26 03:24:51;;;;;;;14.93;14.33;;;22.20;53.50;;;;;;5015994;28;20528;-56
2021/11/26 03:27:18;;;;;;;14.93;14.43;;;22.50;53.10;;;;;;5015748;28;21015;-55
2021/11/26 03:29:46;;;;;;;16.70;15.90;;;22.70;52.50;;;;;;5016014;28;20828;-56
2021/11/26 03:32:13;;;;;;;15.20;14.50;;;22.70;52.30;;;;;;5020062;28;20441;-56
2021/11/26 03:34:39;;;;;;;15.77;15.07;;;22.60;52.20;;;;;;5035127;28;20451;-58
2021/11/26 03:37:06;;;;;;;15.70;15.00;;;22.50;52.30;;;;;;5022738;28;20528;-56
2021/11/26 03:39:33;;;;;;;14.10;13.60;;;22.50;52.80;;;;;;5015141;28;20472;-56
2021/11/26 03:42:00;;;;;;;14.60;14.10;;;22.40;52.40;;;;;;5014742;28;20481;-55
2021/11/26 03:44:27;;;;;;;15.43;14.83;;;22.40;52.60;;;;;;5014805;28;20453;-56
2021/11/26 03:46:55;;;;;;;14.83;14.23;;;22.20;52.70;;;;;;5024730;28;20604;-57
2021/11/26 03:49:22;;;;;;;14.73;14.13;;;22.20;53.00;;;;;;5033829;28;20448;-57
2021/11/26 03:51:48;;;;;;;15.33;14.53;;;22.30;53.10;;;;;;5034472;28;20781;-55
2021/11/26 03:54:15;;;;;;;15.60;14.80;;;22.60;52.90;;;;;;5034260;28;20445;-57
2021/11/26 03:56:42;;;;;;;15.87;15.17;;;23.10;52.40;;;;;;5025755;28;20504;-57
2021/11/26 03:59:09;;;;;;;15.20;14.40;;;23.60;51.30;;;;;;5014845;28;20819;-57
2021/11/26 04:01:36;;;;;;;16.30;15.50;;;24.00;50.40;;;;;;5015095;28;20601;-57
2021/11/26 04:04:04;;;;;;;16.07;15.33;;;24.10;49.80;;;;;;5014654;28;20470;-55
2021/11/26 04:06:31;;;;;;;15.50;14.60;;;24.20;49.50;;;;;;4995382;28;20451;-58
2021/11/26 04:08:58;;;;;;;15.60;15.00;;;24.20;49.40;;;;;;4995381;28;20447;-55
2021/11/26 04:11:26;;;;;;;15.80;15.10;;;24.10;49.30;;;;;;4995375;28;20459;-55
2021/11/26 04:13:53;;;;;;;16.10;15.40;;;24.10;49.20;;;;;;4994828;28;20959;-58
2021/11/26 04:16:20;;;;;;;16.10;15.40;;;24.10;49.30;;;;;;5032258;28;20540;-55
2021/11/26 04:18:46;;;;;;;16.13;15.43;;;24.00;49.30;;;;;;5034818;28;20939;-57
2021/11/26 04:21:15;;;;;;;16.80;15.93;;;24.00;49.30;;;;;;5034323;28;20492;-55
2021/11/26 04:23:43;;;;;;;16.20;15.57;;;23.90;49.40;;;;;;5033947;28;20445;-56
2021/11/26 04:26:09;;;;;;;15.60;15.03;;;23.80;49.40;;;;;;5016879;28;20453;-56
2021/11/26 04:28:36;;;;;;;16.10;15.40;;;23.80;49.60;;;;;;5014114;28;20461;-58
2021/11/26 04:31:04;;;;;;;16.23;15.63;;;24.20;49.40;;;;;;5015408;28;20512;-56
2021/11/26 04:33:33;;;;;;;15.50;14.80;;;24.60;48.70;;;;;;5014059;28;20446;-58
2021/11/26 04:36:01;;;;;;;16.20;15.50;;;24.70;48.30;;;;;;5014265;28;20445;-57
2021/11/26 04:38:29;;;;;;;16.07;15.43;;;24.60;48.10;;;;;;5014757;28;20446;-59
2021/11/26 04:40:56;;;;;;;16.53;15.93;;;24.60;48.10;;;;;;5015898;28;20512;-55
2021/11/26 04:43:23;;;;;;;15.93;15.27;;;24.60;48.10;;;;;;5033939;28;20949;-59
2021/11/26 04:45:51;;;;;;;16.60;15.90;;;24.40;48.10;;;;;;5034125;28;20445;-58
2021/11/26 04:48:18;;;;;;;15.70;15.07;;;24.30;48.20;;;;;;5033647;28;20950;-56
2021/11/26 04:50:45;;;;;;;16.07;15.37;;;24.30;48.40;;;;;;5033595;28;20479;-55
2021/11/26 04:53:12;;;;;;;16.23;15.50;;;24.40;48.60;;;;;;5014111;28;20442;-53
2021/11/26 04:55:40;;;;;;;16.90;16.20;;;24.70;48.20;;;;;;5014201;28;20448;-57
2021/11/26 04:58:07;;;;;;;16.97;16.27;;;25.00;47.60;;;;;;5031810;28;20532;-58
2021/11/26 05:00:34;;;;;;;16.17;15.47;;;24.90;47.30;;;;;;5019917;28;20476;-54
2021/11/26 05:03:01;;;;;;;16.70;16.10;;;24.90;47.30;;;;;;5014585;28;20876;-54
2021/11/26 05:05:28;;;;;;;17.20;16.43;;;24.80;47.30;;;;;;5014275;28;20460;-57
2021/11/26 05:07:57;;;;;;;17.27;16.60;;;24.70;47.40;;;;;;5013911;28;20452;-54
2021/11/26 05:10:24;;;;;;;17.00;16.10;;;24.60;47.50;;;;;;5027615;28;20469;-57
2021/11/26 05:12:54;;;;;;;17.17;16.47;;;24.60;47.60;;;;;;5034487;28;20502;-53
2021/11/26 05:15:25;;;;;;;17.30;16.60;;;24.50;47.70;;;;;;5034467;28;20441;-54
2021/11/26 05:17:53;;;;;;;16.50;15.90;;;24.50;47.90;;;;;;5035296;28;20496;-59
2021/11/26 05:20:21;;;;;;;17.40;16.70;;;24.90;47.80;;;;;;5022834;28;20557;-55
2021/11/26 05:22:48;;;;;;;17.00;16.30;;;25.20;47.10;;;;;;5014036;28;20492;-56
2021/11/26 05:25:15;;;;;;;17.33;16.63;;;25.20;46.70;;;;;;5014313;28;20454;-57
2021/11/26 05:27:42;;;;;;;16.40;15.80;;;25.20;46.80;;;;;;5013979;28;20449;-56
2021/11/26 05:30:11;;;;;;;17.10;16.40;;;25.10;46.70;;;;;;5023667;28;20999;-57
2021/11/26 05:32:38;;;;;;;17.00;16.40;;;25.00;46.80;;;;;;5033337;28;20449;-56
2021/11/26 05:35:06;;;;;;;14.90;14.40;;;24.90;46.90;;;;;;5033425;28;20449;-53
2021/11/26 05:37:33;;;;;;;16.77;16.07;;;24.70;47.10;;;;;;5033484;28;20445;-58
2021/11/26 05:40:00;;;;;;;16.93;16.13;;;24.70;47.30;;;;;;5024296;28;20461;-55
2021/11/26 05:42:26;;;;;;;16.73;16.03;;;24.60;47.40;;;;;;5013135;28;20481;-58
2021/11/26 05:44:53;;;;;;;16.13;15.53;;;25.00;47.50;;;;;;5013625;28;20452;-56
2021/11/26 05:47:21;;;;;;;16.60;16.00;;;25.40;46.80;;;;;;5013094;28;20456;-57
2021/11/26 05:49:48;;;;;;;16.80;16.20;;;25.40;46.40;;;;;;5019962;28;20477;-58
2021/11/26 05:52:15;;;;;;;17.03;16.33;;;25.40;46.40;;;;;;5032712;28;20449;-57
2021/11/26 05:54:42;;;;;;;17.53;16.83;;;25.30;46.40;;;;;;5032814;28;20544;-58
2021/11/26 05:57:09;;;;;;;16.87;16.23;;;25.20;46.50;;;;;;5032502;28;20445;-59
2021/11/26 05:59:35;;;;;;;17.00;16.40;;;25.10;46.70;;;;;;5027227;28;20497;-58
2021/11/26 06:02:02;;;;;;;17.10;16.40;;;25.00;46.70;;;;;;5012148;28;21018;-56
2021/11/26 06:04:31;;;;;;;17.27;16.50;;;24.90;46.80;;;;;;5012150;28;20552;-58
2021/11/26 06:06:59;;;;;;;16.87;16.07;;;24.80;47.00;;;;;;5012284;28;20449;-56
2021/11/26 06:09:26;;;;;;;16.67;15.97;;;24.60;47.10;;;;;;5015121;28;20841;-56
2021/11/26 06:11:52;;;;;;;16.37;15.77;;;24.60;47.30;;;;;;5031618;28;20436;-55
2021/11/26 06:14:19;;;;;;;17.53;16.83;;;24.40;47.40;;;;;;5031440;28;20950;-53
2021/11/26 06:16:46;;;;;;;17.33;16.50;;;24.40;47.90;;;;;;5031759;28;20441;-56
2021/11/26 06:19:13;;;;;;;17.83;16.77;;;24.30;48.50;;;;;;5030746;28;20440;-56
2021/11/26 06:21:41;;;;;;;18.40;17.30;;;24.20;49.40;;;;;;5016444;28;20492;-58
2021/11/26 06:24:08;;;;;;;17.43;16.73;;;24.10;50.50;;;;;;5016569;28;20450;-58
2021/11/26 06:26:35;;;;;;;17.87;16.97;;;23.90;51.60;;;;;;5016851;28;20445;-57
2021/11/26 06:29:02;;;;;;;18.63;17.53;;;23.80;52.30;;;;;;5016195;28;20532;-53
2021/11/26 06:31:29;;;;;;;18.90;17.70;;;23.70;52.90;;;;;;5034806;28;20487;-57
2021/11/26 06:33:56;;;;;;;19.07;18.07;;;23.70;53.70;;;;;;5035104;28;20448;-49
2021/11/26 06:36:22;;;;;;;19.53;18.17;;;23.60;55.10;;;;;;5034988;28;20445;-49
2021/11/26 06:38:51;;;;;;;20.33;18.73;;;23.40;57.60;;;;;;5035065;28;20927;-47
2021/11/26 06:41:17;;;;;;;20.00;18.60;;;23.30;60.70;;;;;;5016603;28;20472;-49
2021/11/26 06:43:44;;;;;;;19.30;17.80;;;23.20;60.90;;;;;;5014890;28;20796;-50
2021/11/26 06:46:11;;;;;;;18.40;17.20;;;23.20;61.00;;;;;;5015355;28;20446;-52
2021/11/26 06:48:38;;;;;;;19.60;17.90;;;23.10;60.20;;;;;;5015325;28;20460;-48
2021/11/26 06:51:05;;;;;;;20.33;18.90;;;23.00;59.50;;;;;;5015294;28;20752;-47
2021/11/26 06:53:32;;;;;;;20.80;18.53;;;22.90;58.90;;;;;;5014839;28;20438;-47
2021/11/26 06:56:00;;;;;;;17.10;16.10;;;22.80;58.60;;;;;;5015021;28;20452;-47
2021/11/26 06:58:27;;;;;;;18.13;16.73;;;22.70;58.40;;;;;;5014948;28;20457;-46
2021/11/26 07:00:54;;;;;;;19.07;17.97;;;22.60;58.10;;;;;;5014851;28;20838;-50
2021/11/26 07:03:20;;;;;;;19.80;18.20;;;22.50;57.90;;;;;;5014592;28;21021;-46
2021/11/26 07:05:47;;;;;;;15.10;14.30;;;22.40;57.90;;;;;;5014849;28;20449;-47
2021/11/26 07:08:16;;;;;;;15.60;14.70;;;22.30;57.80;;;;;;5014686;28;20441;-48
2021/11/26 07:10:43;;;;;;;16.43;15.40;;;22.20;57.80;;;;;;5014625;28;20589;-48
2021/11/26 07:13:11;;;;;;;16.37;15.37;;;22.10;57.90;;;;;;5014417;28;20843;-51
2021/11/26 07:15:38;;;;;;;17.70;16.60;;;22.10;57.90;;;;;;5014547;28;20462;-50
2021/11/26 07:18:05;;;;;;;17.53;16.43;;;22.00;57.90;;;;;;5014646;28;20460;-49
2021/11/26 07:20:33;;;;;;;14.33;13.67;;;21.90;57.90;;;;;;5014559;28;20468;-50
2021/11/26 07:22:59;;;;;;;16.90;15.90;;;21.80;57.90;;;;;;5014226;28;20485;-46
2021/11/26 07:25:26;;;;;;;14.50;13.80;;;21.70;57.90;;;;;;5014543;28;20520;-52
2021/11/26 07:27:53;;;;;;;15.90;14.80;;;21.60;57.80;;;;;;5014481;28;20955;-46
2021/11/26 07:30:21;;;;;;;13.83;13.23;;;21.60;57.90;;;;;;5013887;28;20473;-46
2021/11/26 07:32:49;;;;;;;15.33;14.40;;;21.50;57.90;;;;;;5014130;28;20445;-46
2021/11/26 07:35:16;;;;;;;14.50;13.77;;;21.40;57.90;;;;;;5014314;28;20453;-46
2021/11/26 07:37:43;;;;;;;14.50;13.90;;;21.30;58.00;;;;;;5014116;28;20442;-52
2021/11/26 07:40:12;;;;;;;14.53;13.83;;;21.30;58.10;;;;;;5014089;28;20468;-47
2021/11/26 07:42:40;;;;;;;14.50;13.80;;;21.20;58.10;;;;;;5013808;28;20488;-50
2021/11/26 07:45:08;;;;;;;16.03;15.13;;;21.10;58.10;;;;;;5014203;28;20442;-52
2021/11/26 07:47:37;;;;;;;14.87;14.07;;;21.00;58.10;;;;;;5014023;28;20830;-51
2021/11/26 07:50:05;;;;;;;14.83;14.10;;;21.00;58.30;;;;;;5013781;28;20478;-48
2021/11/26 07:52:32;;;;;;;14.60;13.90;;;20.90;58.30;;;;;;5013759;28;20438;-47
2021/11/26 07:54:59;;;;;;;14.90;14.00;;;20.80;58.40;;;;;;5013838;28;20445;-51
2021/11/26 07:57:26;;;;;;;14.40;13.70;;;20.70;58.40;;;;;;5013793;28;20446;-49
2021/11/26 07:59:53;;;;;;;14.37;13.47;;;20.70;58.50;;;;;;5013690;28;20465;-49
2021/11/26 08:02:20;;;;;;;14.80;14.00;;;20.60;58.60;;;;;;5013408;28;20477;-47
2021/11/26 08:04:48;;;;;;;13.43;12.83;;;20.60;58.70;;;;;;5013670;28;20446;-46
2021/11/26 08:07:15;;;;;;;13.83;13.23;;;20.50;58.80;;;;;;5013708;28;20541;-46
2021/11/26 08:09:42;;;;;;;13.43;12.73;;;20.40;58.80;;;;;;5013469;28;20476;-50
2021/11/26 08:12:09;;;;;;;14.60;13.90;;;20.40;59.00;;;;;;5013433;28;20446;-46
2021/11/26 08:14:36;;;;;;;14.57;13.87;;;20.30;59.00;;;;;;5013499;28;20450;-50
2021/11/26 08:17:03;;;;;;;14.73;14.07;;;20.20;59.10;;;;;;5013305;28;20458;-50
2021/11/26 08:19:30;;;;;;;14.33;13.70;;;20.20;59.20;;;;;;5013479;28;20800;-51
2021/11/26 08:21:58;;;;;;;14.33;13.77;;;20.10;59.20;;;;;;5013243;28;20456;-50
2021/11/26 08:24:26;;;;;;;15.67;14.93;;;20.10;59.30;;;;;;5013287;28;20445;-46
2021/11/26 08:26:53;;;;;;;15.20;14.30;;;20.00;59.20;;;;;;5013278;28;20458;-49
2021/11/26 08:29:20;;;;;;;14.53;13.70;;;20.00;59.30;;;;;;5013145;28;20450;-49
2021/11/26 08:31:47;;;;;;;15.10;14.33;;;19.90;59.40;;;;;;5013028;28;20446;-48
2021/11/26 08:34:14;;;;;;;15.73;15.00;;;19.90;59.40;;;;;;5013214;28;20984;-46
2021/11/26 08:36:41;;;;;;;15.53;14.93;;;19.80;59.30;;;;;;5013046;28;20449;-49
2021/11/26 08:39:10;;;;;;;14.73;13.93;;;19.80;59.40;;;;;;5013187;28;20456;-46
2021/11/26 08:41:37;;;;;;;14.80;14.17;;;19.80;59.50;;;;;;5012418;28;20529;-50
2021/11/26 08:44:05;;;;;;;14.07;13.63;;;19.70;59.60;;;;;;5012475;28;20488;-47
2021/11/26 08:46:32;;;;;;;14.73;14.13;;;19.70;59.50;;;;;;5013087;28;20537;-46
2021/11/26 08:48:58;;;;;;;14.60;14.10;;;19.60;59.50;;;;;;5012988;28;20441;-53
2021/11/26 08:51:27;;;;;;;15.40;14.67;;;19.60;59.60;;;;;;5012610;28;20478;-46
2021/11/26 08:53:54;;;;;;;15.03;14.40;;;19.50;59.60;;;;;;5012834;28;20500;-46
2021/11/26 08:56:24;;;;;;;14.00;13.40;;;19.50;59.80;;;;;;5012661;28;20450;-48
2021/11/26 08:58:51;;;;;;;16.00;15.20;;;19.50;59.80;;;;;;5012916;28;20550;-46
2021/11/26 09:01:18;;;;;;;14.30;13.70;;;19.40;59.80;;;;;;5012706;28;20561;-46
2021/11/26 09:03:46;;;;;;;14.60;13.90;;;19.30;59.90;;;;;;5012389;28;20488;-46
2021/11/26 09:06:14;;;;;;;14.47;13.87;;;19.20;60.30;;;;;;5012514;28;20756;-47
2021/11/26 09:08:41;;;;;;;14.63;14.07;;;19.10;60.50;;;;;;5012431;28;20936;-47
2021/11/26 09:11:08;;;;;;;14.00;13.40;;;19.10;61.50;;;;;;5012404;28;20468;-47
2021/11/26 09:13:36;;;;;;;14.27;13.63;;;19.00;60.80;;;;;;5012164;28;20457;-54
2021/11/26 09:16:03;;;;;;;15.37;14.77;;;19.00;61.10;;;;;;5012463;28;20448;-50
2021/11/26 09:18:30;;;;;;;14.00;13.60;;;19.00;62.10;;;;;;5012378;28;20452;-47
2021/11/26 09:20:59;;;;;;;14.70;14.20;;;18.90;61.30;;;;;;5012223;28;20568;-47
2021/11/26 09:23:26;;;;;;;14.63;13.93;;;18.90;61.40;;;;;;5012055;28;20528;-51
2021/11/26 09:25:54;;;;;;;13.83;13.43;;;18.90;61.50;;;;;;5012234;28;20834;-49
2021/11/26 09:28:21;;;;;;;14.20;13.70;;;18.80;61.70;;;;;;5012444;28;20450;-46
2021/11/26 09:30:50;;;;;;;15.23;14.67;;;18.80;61.90;;;;;;5012021;28;20468;-46
2021/11/26 09:33:19;;;;;;;14.80;14.20;;;18.70;62.00;;;;;;5011889;28;20442;-46
2021/11/26 09:35:47;;;;;;;15.57;14.77;;;18.60;62.20;;;;;;5012146;28;20442;-54
2021/11/26 09:38:14;;;;;;;14.20;13.70;;;18.60;62.40;;;;;;5012125;28;20446;-46
2021/11/26 09:40:42;;;;;;;14.47;13.90;;;18.60;62.40;;;;;;5012153;28;20476;-46
2021/11/26 09:43:08;;;;;;;14.90;14.33;;;18.50;62.30;;;;;;5011683;28;20529;-48
2021/11/26 09:45:35;;;;;;;14.00;13.50;;;18.50;62.20;;;;;;5011962;28;20450;-49
2021/11/26 09:48:04;;;;;;;13.77;13.27;;;18.40;62.30;;;;;;5011982;28;20476;-49
2021/11/26 09:50:33;;;;;;;13.90;13.20;;;18.40;62.60;;;;;;5011839;28;20484;-48
2021/11/26 09:53:16;;;;;;;14.17;13.67;;;18.40;62.80;;;;;;5011539;28;20490;-48
2021/11/26 09:55:49;;;;;;;14.30;13.70;;;18.40;62.60;;;;;;5011735;28;20446;-48
2021/11/26 09:58:16;;;;;;;14.53;13.67;;;18.30;62.80;;;;;;5011835;28;20504;-49
2021/11/26 10:00:45;;;;;;;13.90;13.40;;;18.30;62.70;;;;;;5011651;28;20476;-46
2021/11/26 10:03:13;;;;;;;14.90;14.17;;;18.20;63.00;;;;;;5011589;28;20492;-46
2021/11/26 10:05:40;;;;;;;14.20;13.70;;;18.20;63.40;;;;;;5011774;28;20442;-46
2021/11/26 10:08:08;;;;;;;13.83;13.20;;;18.20;63.20;;;;;;5011705;28;20445;-48
2021/11/26 10:10:37;;;;;;;13.70;13.20;;;18.30;63.20;;;;;;5011607;28;20466;-46
2021/11/26 10:13:06;;;;;;;14.20;13.50;;;18.30;62.80;;;;;;5011369;28;20442;-48
2021/11/26 10:15:38;;;;;;;14.30;13.70;;;18.30;62.70;;;;;;5011615;28;20449;-47
2021/11/26 10:18:10;;;;;;;14.30;13.70;;;18.30;62.80;;;;;;5011630;28;20499;-46
2021/11/26 10:20:52;;;;;;;14.00;13.37;;;18.30;62.60;;;;;;5011519;28;20470;-47
2021/11/26 10:23:21;;;;;;;14.00;13.50;;;18.40;62.40;;;;;;5011234;28;20485;-54
2021/11/26 10:25:48;;;;;;;14.20;13.60;;;18.40;62.40;;;;;;5011479;28;20449;-47
2021/11/26 10:28:16;;;;;;;14.60;14.00;;;18.40;62.00;;;;;;5011543;28;20466;-52
2021/11/26 10:30:45;;;;;;;14.57;13.90;;;18.30;61.90;;;;;;5011311;28;20828;-46
2021/11/26 10:33:16;;;;;;;14.47;14.03;;;18.30;62.20;;;;;;5011258;28;20437;-49
2021/11/26 10:35:47;;;;;;;15.17;14.43;;;18.30;61.90;;;;;;5011463;28;20839;-48
2021/11/26 10:38:17;;;;;;;13.93;13.50;;;18.30;61.90;;;;;;5011441;28;20442;-53
2021/11/26 10:40:48;;;;;;;14.00;13.50;;;18.30;62.20;;;;;;5011481;28;20802;-52
2021/11/26 10:43:18;;;;;;;14.17;13.73;;;18.20;62.10;;;;;;5011294;28;20482;-49
2021/11/26 10:48:58;;;;;;;13.50;13.00;;;18.10;62.60;;;;;;5011474;28;20489;-46
2021/11/26 10:51:34;;;;;;;14.40;13.80;;;18.10;62.30;;;;;;5011083;28;20470;-46
2021/11/26 10:59:34;;;;;;;13.20;12.80;;;18.10;62.50;;;;;;5011312;28;20445;-46
2021/11/26 11:02:02;;;;;;;13.17;12.63;;;18.00;62.60;;;;;;5010662;28;20861;-46
2021/11/26 11:04:30;;;;;;;14.50;13.70;;;18.00;62.70;;;;;;5011132;28;20481;-46
2021/11/26 11:06:59;;;;;;;12.63;12.30;;;18.00;62.80;;;;;;5014226;28;20553;-49
2021/11/26 11:09:26;;;;;;;13.80;13.30;;;18.00;62.70;;;;;;5014610;28;20466;-51
2021/11/26 11:11:55;;;;;;;12.67;12.27;;;18.00;63.00;;;;;;5014518;28;20450;-46
2021/11/26 11:14:25;;;;;;;13.30;12.80;;;18.00;63.10;;;;;;5014633;28;20442;-47
2021/11/26 11:16:54;;;;;;;12.57;12.13;;;18.00;63.20;;;;;;5014767;28;20453;-46
2021/11/26 11:19:22;;;;;;;13.10;12.67;;;17.90;62.50;;;;;;5014435;28;20445;-54
2021/11/26 11:21:50;;;;;;;12.63;12.23;;;17.90;63.00;;;;;;5014371;28;20816;-46
2021/11/26 11:24:19;;;;;;;13.10;12.70;;;17.90;62.90;;;;;;5014248;28;20486;-51
2021/11/26 11:26:48;;;;;;;13.93;13.40;;;18.00;63.20;;;;;;5014431;28;20441;-49
2021/11/26 11:29:15;;;;;;;14.20;13.70;;;17.90;63.00;;;;;;5014148;28;20457;-47
2021/11/26 11:31:43;;;;;;;13.00;12.60;;;17.90;62.90;;;;;;5013949;28;20442;-46
2021/11/26 11:34:10;;;;;;;13.93;13.43;;;17.90;62.80;;;;;;5014309;28;20812;-48
2021/11/26 11:36:39;;;;;;;13.87;13.40;;;18.10;62.60;;;;;;5014148;28;20537;-51
2021/11/26 11:39:07;;;;;;;12.60;12.20;;;18.50;61.50;;;;;;5014135;28;20441;-50
2021/11/26 11:41:46;;;;;;;12.77;12.30;;;18.70;60.40;;;;;;5013851;28;20452;-46
2021/11/26 11:44:22;;;;;;;13.30;12.80;;;19.00;59.60;;;;;;5014127;28;20488;-46
2021/11/26 11:46:49;;;;;;;13.03;12.63;;;19.00;59.10;;;;;;5014060;28;20453;-46
2021/11/26 11:49:24;;;;;;;13.37;12.87;;;18.90;59.00;;;;;;5013603;28;20962;-47
2021/11/26 11:51:51;;;;;;;13.33;12.63;;;18.90;59.00;;;;;;5013791;28;20452;-47
2021/11/26 11:54:19;;;;;;;13.87;13.37;;;18.90;58.80;;;;;;5013693;28;20546;-47
2021/11/26 11:56:50;;;;;;;12.63;12.20;;;18.90;58.70;;;;;;5013769;28;20512;-46
2021/11/26 11:59:30;;;;;;;13.83;13.43;;;19.00;58.60;;;;;;5013717;28;20446;-48
2021/11/26 12:01:57;;;;;;;13.70;13.20;;;18.90;58.30;;;;;;5013621;28;20543;-47
2021/11/26 12:04:25;;;;;;;13.60;13.07;;;19.00;58.30;;;;;;5013265;28;20485;-50
2021/11/26 12:06:53;;;;;;;14.13;13.73;;;19.00;58.30;;;;;;5013665;28;20541;-52
2021/11/26 12:09:25;;;;;;;13.80;13.33;;;18.90;58.30;;;;;;5013115;28;20456;-53
2021/11/26 12:12:05;;;;;;;13.80;13.30;;;18.90;58.40;;;;;;5013427;28;20500;-50
2021/11/26 12:14:32;;;;;;;13.93;13.53;;;18.80;58.30;;;;;;5013527;28;20446;-47
2021/11/26 12:17:13;;;;;;;13.90;13.50;;;18.80;58.30;;;;;;5012254;28;20442;-50
2021/11/26 12:19:41;;;;;;;13.47;12.97;;;18.80;58.10;;;;;;5013408;28;20557;-50
2021/11/26 12:22:09;;;;;;;13.30;12.80;;;18.80;58.10;;;;;;5013120;28;20454;-46
2021/11/26 12:24:39;;;;;;;12.40;12.00;;;18.80;58.10;;;;;;5013223;28;20544;-46
2021/11/26 12:27:10;;;;;;;13.27;12.87;;;18.70;58.20;;;;;;5013021;28;20869;-46
2021/11/26 12:29:43;;;;;;;13.77;13.37;;;18.70;58.20;;;;;;5012998;28;20886;-47
2021/11/26 12:32:14;;;;;;;14.70;14.20;;;18.60;58.30;;;;;;5012986;28;20503;-48
2021/11/26 12:34:42;;;;;;;13.73;13.33;;;18.60;58.40;;;;;;5012980;28;20450;-50
2021/11/26 12:37:21;;;;;;;12.50;12.20;;;18.50;58.40;;;;;;5012908;28;20453;-47
2021/11/26 12:39:48;;;;;;;12.50;12.00;;;18.40;58.50;;;;;;5013034;28;20963;-46